sensor_id;sensor_type;location;lat;lon;timestamp;pressure;altitude;pressure_sealevel;temperature;humidity
13732;BME280;6937;56.096;12.664;2023-02-20T00:01:18;101630.22;;;4.62;100.00
13732;BME280;6937;56.096;12.664;2023-02-20T00:03:44;101634.59;;;4.63;100.00
13732;BME280;6937;56.096;12.664;2023-02-20T00:06:09;101641.72;;;4.61;100.00
13732;BME280;6937;56.096;12.664;2023-02-20T00:08:35;101641.69;;;4.63;100.00
13732;BME280;6937;56.096;12.664;2023-02-20T00:11:01;101642.59;;;4.62;100.00
13732;BME280;6937;56.096;12.664;2023-02-20T00:13:26;101651.50;;;4.59;100.00
13732;BME280;6937;56.096;12.664;2023-02-20T00:15:52;101632.94;;;4.61;100.00
13732;BME280;6937;56.096;12.664;2023-02-20T00:18:17;101635.66;;;4.58;100.00
13732;BME280;6937;56.096;12.664;2023-02-20T00:20:43;101634.81;;;4.57;100.00
13732;BME280;6937;56.096;12.664;2023-02-20T00:23:08;101629.56;;;4.56;100.00
13732;BME280;6937;56.096;12.664;2023-02-20T00:25:33;101626.09;;;4.54;100.00
13732;BME280;6937;56.096;12.664;2023-02-20T00:27:59;101638.56;;;4.50;100.00
13732;BME280;6937;56.096;12.664;2023-02-20T00:30:24;101631.59;;;4.48;100.00
13732;BME280;6937;56.096;12.664;2023-02-20T00:32:51;101633.38;;;4.47;100.00
13732;BME280;6937;56.096;12.664;2023-02-20T00:35:18;101650.19;;;4.46;100.00
13732;BME280;6937;56.096;12.664;2023-02-20T00:37:45;101659.06;;;4.45;100.00
13732;BME280;6937;56.096;12.664;2023-02-20T00:40:11;101654.66;;;4.44;100.00
13732;BME280;6937;56.096;12.664;2023-02-20T00:42:37;101660.00;;;4.43;100.00
13732;BME280;6937;56.096;12.664;2023-02-20T00:45:03;101649.34;;;4.46;100.00
13732;BME280;6937;56.096;12.664;2023-02-20T00:47:28;101666.13;;;4.45;100.00
13732;BME280;6937;56.096;12.664;2023-02-20T00:49:54;101667.00;;;4.45;100.00
13732;BME280;6937;56.096;12.664;2023-02-20T00:52:19;101654.66;;;4.44;100.00
13732;BME280;6937;56.096;12.664;2023-02-20T00:54:44;101663.56;;;4.42;100.00
13732;BME280;6937;56.096;12.664;2023-02-20T00:57:10;101672.44;;;4.41;100.00
13732;BME280;6937;56.096;12.664;2023-02-20T00:59:35;101674.19;;;4.40;100.00
13732;BME280;6937;56.096;12.664;2023-02-20T01:02:00;101675.97;;;4.39;100.00
13732;BME280;6937;56.096;12.664;2023-02-20T01:04:26;101682.22;;;4.38;100.00
13732;BME280;6937;56.096;12.664;2023-02-20T01:06:51;101679.56;;;4.38;100.00
13732;BME280;6937;56.096;12.664;2023-02-20T01:09:17;101697.22;;;4.38;100.00
13732;BME280;6937;56.096;12.664;2023-02-20T01:11:43;101702.44;;;4.39;100.00
13732;BME280;6937;56.096;12.664;2023-02-20T01:14:10;101706.78;;;4.42;100.00
13732;BME280;6937;56.096;12.664;2023-02-20T01:16:36;101714.66;;;4.44;100.00
13732;BME280;6937;56.096;12.664;2023-02-20T01:19:01;101717.31;;;4.44;100.00
13732;BME280;6937;56.096;12.664;2023-02-20T01:21:27;101737.53;;;4.46;100.00
13732;BME280;6937;56.096;12.664;2023-02-20T01:23:52;101740.13;;;4.48;100.00
13732;BME280;6937;56.096;12.664;2023-02-20T01:26:18;101756.88;;;4.48;100.00
13732;BME280;6937;56.096;12.664;2023-02-20T01:28:47;101755.91;;;4.51;100.00
13732;BME280;6937;56.096;12.664;2023-02-20T01:31:14;101761.97;;;4.54;100.00
13732;BME280;6937;56.096;12.664;2023-02-20T01:33:42;101773.44;;;4.55;100.00
13732;BME280;6937;56.096;12.664;2023-02-20T01:36:09;101784.03;;;4.55;100.00
13732;BME280;6937;56.096;12.664;2023-02-20T01:38:34;101790.94;;;4.59;100.00
13732;BME280;6937;56.096;12.664;2023-02-20T01:41:00;101779.47;;;4.60;100.00
13732;BME280;6937;56.096;12.664;2023-02-20T01:43:25;101779.31;;;4.64;100.00
13732;BME280;6937;56.096;12.664;2023-02-20T01:45:51;101772.25;;;4.65;100.00
13732;BME280;6937;56.096;12.664;2023-02-20T01:48:22;101784.50;;;4.67;100.00
13732;BME280;6937;56.096;12.664;2023-02-20T01:50:51;101792.31;;;4.72;100.00
13732;BME280;6937;56.096;12.664;2023-02-20T01:53:21;101781.66;;;4.73;100.00
13732;BME280;6937;56.096;12.664;2023-02-20T01:55:54;101794.88;;;4.75;100.00
13732;BME280;6937;56.096;12.664;2023-02-20T01:58:32;101799.16;;;4.79;100.00
13732;BME280;6937;56.096;12.664;2023-02-20T02:01:02;101799.03;;;4.82;100.00
13732;BME280;6937;56.096;12.664;2023-02-20T02:03:30;101811.38;;;4.83;100.00
13732;BME280;6937;56.096;12.664;2023-02-20T02:05:59;101813.09;;;4.84;100.00
13732;BME280;6937;56.096;12.664;2023-02-20T02:08:26;101815.75;;;4.84;100.00
13732;BME280;6937;56.096;12.664;2023-02-20T02:11:01;101829.75;;;4.87;100.00
13732;BME280;6937;56.096;12.664;2023-02-20T02:13:31;101844.69;;;4.90;100.00
13732;BME280;6937;56.096;12.664;2023-02-20T02:18:51;101834.00;;;4.93;100.00
13732;BME280;6937;56.096;12.664;2023-02-20T02:33:05;101866.84;;;5.15;100.00
13732;BME280;6937;56.096;12.664;2023-02-20T02:38:46;101867.34;;;5.26;100.00
13732;BME280;6937;56.096;12.664;2023-02-20T02:41:19;101884.84;;;5.32;100.00
13732;BME280;6937;56.096;12.664;2023-02-20T02:43:53;101876.81;;;5.33;100.00
13732;BME280;6937;56.096;12.664;2023-02-20T02:46:43;101887.31;;;5.36;100.00
13732;BME280;6937;56.096;12.664;2023-02-20T02:49:33;101905.84;;;5.38;100.00
13732;BME280;6937;56.096;12.664;2023-02-20T02:52:00;101909.28;;;5.40;100.00
13732;BME280;6937;56.096;12.664;2023-02-20T02:54:28;101903.03;;;5.43;100.00
13732;BME280;6937;56.096;12.664;2023-02-20T02:57:24;101904.69;;;5.47;100.00
13732;BME280;6937;56.096;12.664;2023-02-20T02:59:56;101923.16;;;5.48;100.00
13732;BME280;6937;56.096;12.664;2023-02-20T03:02:24;101918.56;;;5.55;100.00
13732;BME280;6937;56.096;12.664;2023-02-20T03:04:54;101913.06;;;5.59;100.00
13732;BME280;6937;56.096;12.664;2023-02-20T03:07:22;101928.94;;;5.61;100.00
13732;BME280;6937;56.096;12.664;2023-02-20T03:09:54;101919.16;;;5.63;100.00
13732;BME280;6937;56.096;12.664;2023-02-20T03:12:21;101911.03;;;5.67;100.00
13732;BME280;6937;56.096;12.664;2023-02-20T03:15:02;101915.31;;;5.71;100.00
13732;BME280;6937;56.096;12.664;2023-02-20T03:17:56;101888.00;;;5.69;100.00
13732;BME280;6937;56.096;12.664;2023-02-20T03:20:24;101902.94;;;5.72;100.00
13732;BME280;6937;56.096;12.664;2023-02-20T03:22:58;101901.91;;;5.76;100.00
13732;BME280;6937;56.096;12.664;2023-02-20T03:25:32;101902.94;;;5.72;100.00
13732;BME280;6937;56.096;12.664;2023-02-20T03:28:00;101900.81;;;5.81;100.00
13732;BME280;6937;56.096;12.664;2023-02-20T03:33:43;101909.72;;;5.80;100.00
13732;BME280;6937;56.096;12.664;2023-02-20T03:36:38;101891.72;;;5.90;100.00
13732;BME280;6937;56.096;12.664;2023-02-20T03:39:32;101909.38;;;5.91;100.00
13732;BME280;6937;56.096;12.664;2023-02-20T03:42:18;101933.91;;;5.98;100.00
13732;BME280;6937;56.096;12.664;2023-02-20T03:45:04;101926.59;;;6.04;100.00
13732;BME280;6937;56.096;12.664;2023-02-20T03:47:30;101916.72;;;6.08;100.00
13732;BME280;6937;56.096;12.664;2023-02-20T03:49:58;101908.69;;;6.11;100.00
13732;BME280;6937;56.096;12.664;2023-02-20T03:52:26;101899.63;;;6.16;100.00
13732;BME280;6937;56.096;12.664;2023-02-20T03:54:51;101908.41;;;6.18;100.00
13732;BME280;6937;56.096;12.664;2023-02-20T03:57:20;101893.16;;;6.23;100.00
13732;BME280;6937;56.096;12.664;2023-02-20T03:59:57;101904.25;;;6.35;100.00
13732;BME280;6937;56.096;12.664;2023-02-20T04:02:29;101890.81;;;6.39;100.00
13732;BME280;6937;56.096;12.664;2023-02-20T04:05:02;101881.00;;;6.41;100.00
13732;BME280;6937;56.096;12.664;2023-02-20T04:07:41;101880.16;;;6.41;100.00
13732;BME280;6937;56.096;12.664;2023-02-20T04:10:14;101883.47;;;6.46;100.00
13732;BME280;6937;56.096;12.664;2023-02-20T04:12:43;101869.91;;;6.53;100.00
13732;BME280;6937;56.096;12.664;2023-02-20T04:15:11;101866.09;;;6.60;100.00
13732;BME280;6937;56.096;12.664;2023-02-20T04:17:50;101852.72;;;6.63;100.00
13732;BME280;6937;56.096;12.664;2023-02-20T04:20:17;101846.53;;;6.63;100.00
13732;BME280;6937;56.096;12.664;2023-02-20T04:22:44;101833.00;;;6.69;100.00
13732;BME280;6937;56.096;12.664;2023-02-20T04:25:20;101818.81;;;6.70;100.00
13732;BME280;6937;56.096;12.664;2023-02-20T04:27:49;101844.47;;;6.71;100.00
13732;BME280;6937;56.096;12.664;2023-02-20T04:30:14;101848.69;;;6.75;100.00
13732;BME280;6937;56.096;12.664;2023-02-20T04:32:40;101851.06;;;6.82;100.00
13732;BME280;6937;56.096;12.664;2023-02-20T04:35:06;101841.13;;;6.88;100.00
13732;BME280;6937;56.096;12.664;2023-02-20T04:37:31;101841.88;;;6.91;100.00
13732;BME280;6937;56.096;12.664;2023-02-20T04:39:57;101858.63;;;6.93;100.00
13732;BME280;6937;56.096;12.664;2023-02-20T04:42:22;101824.00;;;6.95;100.00
13732;BME280;6937;56.096;12.664;2023-02-20T04:44:47;101839.63;;;7.02;100.00
13732;BME280;6937;56.096;12.664;2023-02-20T04:47:15;101822.78;;;7.03;100.00
13732;BME280;6937;56.096;12.664;2023-02-20T04:49:41;101843.97;;;7.05;100.00
13732;BME280;6937;56.096;12.664;2023-02-20T04:52:06;101857.75;;;7.14;100.00
13732;BME280;6937;56.096;12.664;2023-02-20T04:54:32;101825.72;;;7.17;100.00
13732;BME280;6937;56.096;12.664;2023-02-20T04:56:57;101818.56;;;7.19;100.00
13732;BME280;6937;56.096;12.664;2023-02-20T04:59:23;101819.94;;;7.28;100.00
13732;BME280;6937;56.096;12.664;2023-02-20T05:01:49;101815.31;;;7.33;100.00
13732;BME280;6937;56.096;12.664;2023-02-20T05:04:17;101772.81;;;7.32;100.00
13732;BME280;6937;56.096;12.664;2023-02-20T05:06:46;101801.00;;;7.36;100.00
13732;BME280;6937;56.096;12.664;2023-02-20T05:09:12;101777.94;;;7.36;100.00
13732;BME280;6937;56.096;12.664;2023-02-20T05:11:38;101780.47;;;7.39;100.00
13732;BME280;6937;56.096;12.664;2023-02-20T05:14:04;101763.00;;;7.34;100.00
13732;BME280;6937;56.096;12.664;2023-02-20T05:16:30;101768.19;;;7.37;100.00
13732;BME280;6937;56.096;12.664;2023-02-20T05:18:55;101752.38;;;7.34;100.00
13732;BME280;6937;56.096;12.664;2023-02-20T05:21:20;101741.63;;;7.35;100.00
13732;BME280;6937;56.096;12.664;2023-02-20T05:24:04;101704.06;;;7.43;100.00
13732;BME280;6937;56.096;12.664;2023-02-20T05:26:30;101729.69;;;7.45;100.00
13732;BME280;6937;56.096;12.664;2023-02-20T05:28:55;101752.44;;;7.52;100.00
13732;BME280;6937;56.096;12.664;2023-02-20T05:31:20;101731.94;;;7.54;100.00
13732;BME280;6937;56.096;12.664;2023-02-20T05:33:46;101736.31;;;7.55;100.00
13732;BME280;6937;56.096;12.664;2023-02-20T05:36:11;101679.53;;;7.56;100.00
13732;BME280;6937;56.096;12.664;2023-02-20T05:38:37;101704.06;;;7.63;100.00
13732;BME280;6937;56.096;12.664;2023-02-20T05:41:02;101704.06;;;7.63;100.00
13732;BME280;6937;56.096;12.664;2023-02-20T05:43:27;101710.25;;;7.63;100.00
13732;BME280;6937;56.096;12.664;2023-02-20T05:45:52;101690.75;;;7.63;100.00
13732;BME280;6937;56.096;12.664;2023-02-20T05:48:18;101679.97;;;7.66;100.00
13732;BME280;6937;56.096;12.664;2023-02-20T05:50:43;101665.53;;;7.71;100.00
13732;BME280;6937;56.096;12.664;2023-02-20T05:53:08;101679.47;;;7.76;100.00
13732;BME280;6937;56.096;12.664;2023-02-20T05:55:34;101655.25;;;7.83;100.00
13732;BME280;6937;56.096;12.664;2023-02-20T05:57:59;101597.94;;;7.75;100.00
13732;BME280;6937;56.096;12.664;2023-02-20T06:00:25;101609.38;;;7.77;100.00
13732;BME280;6937;56.096;12.664;2023-02-20T06:02:51;101590.53;;;7.82;100.00
13732;BME280;6937;56.096;12.664;2023-02-20T06:05:17;101575.22;;;7.87;100.00
13732;BME280;6937;56.096;12.664;2023-02-20T06:07:43;101592.88;;;7.88;100.00
13732;BME280;6937;56.096;12.664;2023-02-20T06:10:09;101588.56;;;7.86;100.00
13732;BME280;6937;56.096;12.664;2023-02-20T06:12:34;101578.00;;;7.84;100.00
13732;BME280;6937;56.096;12.664;2023-02-20T06:15:00;101567.44;;;7.83;100.00
13732;BME280;6937;56.096;12.664;2023-02-20T06:17:25;101570.88;;;7.85;100.00
13732;BME280;6937;56.096;12.664;2023-02-20T06:19:50;101558.06;;;7.93;100.00
13732;BME280;6937;56.096;12.664;2023-02-20T06:22:16;101547.63;;;7.88;100.00
13732;BME280;6937;56.096;12.664;2023-02-20T06:24:46;101549.53;;;7.86;100.00
13732;BME280;6937;56.096;12.664;2023-02-20T06:27:11;101540.44;;;7.90;100.00
13732;BME280;6937;56.096;12.664;2023-02-20T06:29:37;101532.75;;;7.84;100.00
13732;BME280;6937;56.096;12.664;2023-02-20T06:32:02;101498.09;;;7.86;100.00
13732;BME280;6937;56.096;12.664;2023-02-20T06:34:27;101511.41;;;7.86;100.00
13732;BME280;6937;56.096;12.664;2023-02-20T06:37:00;101510.59;;;7.84;100.00
13732;BME280;6937;56.096;12.664;2023-02-20T06:39:27;101510.53;;;7.85;100.00
13732;BME280;6937;56.096;12.664;2023-02-20T06:41:52;101509.75;;;7.83;100.00
13732;BME280;6937;56.096;12.664;2023-02-20T06:44:18;101510.38;;;7.88;100.00
13732;BME280;6937;56.096;12.664;2023-02-20T06:46:43;101498.56;;;7.94;100.00
13732;BME280;6937;56.096;12.664;2023-02-20T06:49:09;101463.34;;;7.89;100.00
13732;BME280;6937;56.096;12.664;2023-02-20T06:51:34;101456.16;;;7.91;100.00
13732;BME280;6937;56.096;12.664;2023-02-20T06:54:02;101457.94;;;7.90;100.00
13732;BME280;6937;56.096;12.664;2023-02-20T06:56:30;101478.22;;;7.93;100.00
13732;BME280;6937;56.096;12.664;2023-02-20T06:58:56;101500.22;;;7.96;100.00
13732;BME280;6937;56.096;12.664;2023-02-20T07:01:25;101481.34;;;8.01;100.00
13732;BME280;6937;56.096;12.664;2023-02-20T07:03:54;101476.09;;;7.99;100.00
13732;BME280;6937;56.096;12.664;2023-02-20T07:06:21;101465.16;;;8.05;100.00
13732;BME280;6937;56.096;12.664;2023-02-20T07:08:47;101455.50;;;8.03;100.00
13732;BME280;6937;56.096;12.664;2023-02-20T07:11:12;101432.19;;;8.08;100.00
13732;BME280;6937;56.096;12.664;2023-02-20T07:13:38;101413.72;;;8.05;100.00
13732;BME280;6937;56.096;12.664;2023-02-20T07:16:04;101419.91;;;8.05;100.00
13732;BME280;6937;56.096;12.664;2023-02-20T07:18:30;101428.75;;;8.06;100.00
13732;BME280;6937;56.096;12.664;2023-02-20T07:20:55;101387.78;;;8.08;100.00
13732;BME280;6937;56.096;12.664;2023-02-20T07:23:22;101406.34;;;8.10;100.00
13732;BME280;6937;56.096;12.664;2023-02-20T07:25:47;101416.75;;;8.14;100.00
13732;BME280;6937;56.096;12.664;2023-02-20T07:28:15;101406.03;;;8.16;100.00
13732;BME280;6937;56.096;12.664;2023-02-20T07:30:41;101399.69;;;8.18;100.00
13732;BME280;6937;56.096;12.664;2023-02-20T07:33:07;101398.50;;;8.24;100.00
13732;BME280;6937;56.096;12.664;2023-02-20T07:35:33;101373.22;;;8.33;100.00
13732;BME280;6937;56.096;12.664;2023-02-20T07:37:58;101354.50;;;8.34;100.00
13732;BME280;6937;56.096;12.664;2023-02-20T07:40:23;101322.91;;;8.26;100.00
13732;BME280;6937;56.096;12.664;2023-02-20T07:42:49;101366.25;;;8.30;100.00
13732;BME280;6937;56.096;12.664;2023-02-20T07:45:14;101351.75;;;8.36;100.00
13732;BME280;6937;56.096;12.664;2023-02-20T07:47:39;101324.28;;;8.35;100.00
13732;BME280;6937;56.096;12.664;2023-02-20T07:50:05;101342.81;;;8.37;100.00
13732;BME280;6937;56.096;12.664;2023-02-20T07:52:30;101328.47;;;8.39;100.00
13732;BME280;6937;56.096;12.664;2023-02-20T07:54:56;101295.03;;;8.34;100.00
13732;BME280;6937;56.096;12.664;2023-02-20T07:57:21;101292.81;;;8.42;100.00
13732;BME280;6937;56.096;12.664;2023-02-20T07:59:47;101267.91;;;8.43;100.00
13732;BME280;6937;56.096;12.664;2023-02-20T08:02:12;101275.81;;;8.44;100.00
13732;BME280;6937;56.096;12.664;2023-02-20T08:04:37;101281.06;;;8.46;100.00
13732;BME280;6937;56.096;12.664;2023-02-20T08:07:03;101241.09;;;8.46;100.00
13732;BME280;6937;56.096;12.664;2023-02-20T08:09:30;101249.59;;;8.52;100.00
13732;BME280;6937;56.096;12.664;2023-02-20T08:11:56;101238.69;;;8.57;100.00
13732;BME280;6937;56.096;12.664;2023-02-20T08:14:21;101233.53;;;8.54;100.00
13732;BME280;6937;56.096;12.664;2023-02-20T08:16:47;101212.41;;;8.51;100.00
13732;BME280;6937;56.096;12.664;2023-02-20T08:19:12;101201.91;;;8.48;100.00
13732;BME280;6937;56.096;12.664;2023-02-20T08:21:37;101187.47;;;8.52;100.00
13732;BME280;6937;56.096;12.664;2023-02-20T08:24:03;101190.81;;;8.55;100.00
13732;BME280;6937;56.096;12.664;2023-02-20T08:26:28;101187.28;;;8.55;100.00
13732;BME280;6937;56.096;12.664;2023-02-20T08:28:54;101152.94;;;8.50;100.00
13732;BME280;6937;56.096;12.664;2023-02-20T08:31:19;101165.22;;;8.53;100.00
13732;BME280;6937;56.096;12.664;2023-02-20T08:33:45;101144.97;;;8.50;100.00
13732;BME280;6937;56.096;12.664;2023-02-20T08:36:11;101140.13;;;8.57;100.00
13732;BME280;6937;56.096;12.664;2023-02-20T08:38:39;101132.13;;;8.57;100.00
13732;BME280;6937;56.096;12.664;2023-02-20T08:41:07;101114.16;;;8.60;100.00
13732;BME280;6937;56.096;12.664;2023-02-20T08:43:33;101103.44;;;8.62;100.00
13732;BME280;6937;56.096;12.664;2023-02-20T08:45:59;101099.22;;;8.58;100.00
13732;BME280;6937;56.096;12.664;2023-02-20T08:48:25;101103.50;;;8.60;100.00
13732;BME280;6937;56.096;12.664;2023-02-20T08:50:51;101091.03;;;8.61;100.00
13732;BME280;6937;56.096;12.664;2023-02-20T08:53:17;101073.25;;;8.61;100.00
13732;BME280;6937;56.096;12.664;2023-02-20T08:55:43;101087.34;;;8.63;100.00
13732;BME280;6937;56.096;12.664;2023-02-20T08:58:08;101083.53;;;8.67;100.00
13732;BME280;6937;56.096;12.664;2023-02-20T09:00:34;101042.06;;;8.78;100.00
13732;BME280;6937;56.096;12.664;2023-02-20T09:02:59;101049.22;;;8.77;100.00
13732;BME280;6937;56.096;12.664;2023-02-20T09:05:25;101072.81;;;8.83;100.00
13732;BME280;6937;56.096;12.664;2023-02-20T09:07:51;101018.38;;;8.87;100.00
13732;BME280;6937;56.096;12.664;2023-02-20T09:10:19;100998.13;;;8.85;100.00
13732;BME280;6937;56.096;12.664;2023-02-20T09:12:45;100984.97;;;8.82;100.00
13732;BME280;6937;56.096;12.664;2023-02-20T09:15:11;100998.41;;;8.80;100.00
13732;BME280;6937;56.096;12.664;2023-02-20T09:17:37;100991.44;;;8.78;100.00
13732;BME280;6937;56.096;12.664;2023-02-20T09:20:04;101000.47;;;8.75;100.00
13732;BME280;6937;56.096;12.664;2023-02-20T09:22:33;101013.22;;;8.70;100.00
13732;BME280;6937;56.096;12.664;2023-02-20T09:24:59;101008.00;;;8.68;100.00
13732;BME280;6937;56.096;12.664;2023-02-20T09:27:24;101016.53;;;8.73;100.00
13732;BME280;6937;56.096;12.664;2023-02-20T09:29:50;101016.28;;;8.78;100.00
13732;BME280;6937;56.096;12.664;2023-02-20T09:32:15;101024.66;;;8.72;100.00
13732;BME280;6937;56.096;12.664;2023-02-20T09:34:40;101045.75;;;8.61;100.00
13732;BME280;6937;56.096;12.664;2023-02-20T09:37:06;101053.34;;;8.53;100.00
13732;BME280;6937;56.096;12.664;2023-02-20T09:39:32;101075.09;;;8.45;100.00
13732;BME280;6937;56.096;12.664;2023-02-20T09:42:42;101112.75;;;8.39;100.00
13732;BME280;6937;56.096;12.664;2023-02-20T09:50:02;101155.81;;;8.32;100.00
13732;BME280;6937;56.096;12.664;2023-02-20T09:52:33;101192.81;;;8.36;100.00
13732;BME280;6937;56.096;12.664;2023-02-20T09:55:07;101222.81;;;8.40;100.00
13732;BME280;6937;56.096;12.664;2023-02-20T09:57:36;101213.28;;;8.36;100.00
13732;BME280;6937;56.096;12.664;2023-02-20T10:00:19;101198.41;;;8.32;100.00
13732;BME280;6937;56.096;12.664;2023-02-20T10:03:23;101239.81;;;8.37;100.00
13732;BME280;6937;56.096;12.664;2023-02-20T10:05:53;101271.44;;;8.43;100.00
13732;BME280;6937;56.096;12.664;2023-02-20T10:08:20;101252.38;;;8.51;100.00
13732;BME280;6937;56.096;12.664;2023-02-20T10:10:50;101227.84;;;8.60;100.00
13732;BME280;6937;56.096;12.664;2023-02-20T10:16:21;101189.06;;;8.70;100.00
13732;BME280;6937;56.096;12.664;2023-02-20T10:21:46;101204.72;;;8.76;100.00
13732;BME280;6937;56.096;12.664;2023-02-20T10:30:12;101169.16;;;8.77;100.00
13732;BME280;6937;56.096;12.664;2023-02-20T10:32:45;101171.63;;;8.80;100.00
13732;BME280;6937;56.096;12.664;2023-02-20T10:35:16;101156.66;;;8.78;100.00
13732;BME280;6937;56.096;12.664;2023-02-20T10:37:47;101158.56;;;8.76;100.00
13732;BME280;6937;56.096;12.664;2023-02-20T10:40:57;101150.66;;;8.74;100.00
13732;BME280;6937;56.096;12.664;2023-02-20T10:43:32;101141.03;;;8.71;100.00
13732;BME280;6937;56.096;12.664;2023-02-20T10:46:17;101146.28;;;8.73;100.00
13732;BME280;6937;56.096;12.664;2023-02-20T10:48:44;101150.75;;;8.72;100.00
13732;BME280;6937;56.096;12.664;2023-02-20T10:51:23;101138.28;;;8.73;100.00
13732;BME280;6937;56.096;12.664;2023-02-20T10:59:38;101146.72;;;8.65;100.00
13732;BME280;6937;56.096;12.664;2023-02-20T11:02:14;101146.88;;;8.62;100.00
13732;BME280;6937;56.096;12.664;2023-02-20T11:04:41;101156.78;;;8.60;100.00
13732;BME280;6937;56.096;12.664;2023-02-20T11:07:16;101157.84;;;8.58;100.00
13732;BME280;6937;56.096;12.664;2023-02-20T11:09:43;101189.44;;;8.48;100.00
13732;BME280;6937;56.096;12.664;2023-02-20T11:12:25;101179.47;;;8.36;100.00
13732;BME280;6937;56.096;12.664;2023-02-20T11:14:55;101202.34;;;8.24;100.00
13732;BME280;6937;56.096;12.664;2023-02-20T11:17:24;101211.16;;;8.25;100.00
13732;BME280;6937;56.096;12.664;2023-02-20T11:19:57;101249.28;;;8.25;100.00
13732;BME280;6937;56.096;12.664;2023-02-20T11:22:44;101266.25;;;8.24;100.00
13732;BME280;6937;56.096;12.664;2023-02-20T11:25:22;101251.50;;;8.17;100.00
13732;BME280;6937;56.096;12.664;2023-02-20T11:27:54;101257.88;;;8.15;100.00
13732;BME280;6937;56.096;12.664;2023-02-20T11:30:27;101260.78;;;8.10;100.00
13732;BME280;6937;56.096;12.664;2023-02-20T11:33:24;101253.47;;;7.98;100.00
13732;BME280;6937;56.096;12.664;2023-02-20T11:36:30;101245.97;;;7.89;100.00
13732;BME280;6937;56.096;12.664;2023-02-20T11:38:59;101261.94;;;7.89;100.00
13732;BME280;6937;56.096;12.664;2023-02-20T11:41:33;101279.63;;;7.90;100.00
13732;BME280;6937;56.096;12.664;2023-02-20T11:46:42;101308.13;;;7.88;100.00
13732;BME280;6937;56.096;12.664;2023-02-20T11:49:23;101262.72;;;7.91;100.00
13732;BME280;6937;56.096;12.664;2023-02-20T11:51:50;101283.69;;;7.97;100.00
13732;BME280;6937;56.096;12.664;2023-02-20T11:54:24;101296.91;;;7.99;100.00
13732;BME280;6937;56.096;12.664;2023-02-20T11:59:46;101294.16;;;8.00;100.00
13732;BME280;6937;56.096;12.664;2023-02-20T12:05:08;101294.22;;;7.99;100.00
13732;BME280;6937;56.096;12.664;2023-02-20T12:07:54;101276.28;;;8.02;100.00
13732;BME280;6937;56.096;12.664;2023-02-20T12:10:40;101260.31;;;8.02;100.00
13732;BME280;6937;56.096;12.664;2023-02-20T12:13:12;101238.88;;;8.05;100.00
13732;BME280;6937;56.096;12.664;2023-02-20T12:15:39;101239.66;;;8.07;100.00
13732;BME280;6937;56.096;12.664;2023-02-20T12:20:40;101186.25;;;8.10;100.00
13732;BME280;6937;56.096;12.664;2023-02-20T12:29:05;101144.94;;;8.03;100.00
13732;BME280;6937;56.096;12.664;2023-02-20T12:32:02;101143.06;;;8.05;100.00
13732;BME280;6937;56.096;12.664;2023-02-20T12:34:40;101125.38;;;8.04;100.00
13732;BME280;6937;56.096;12.664;2023-02-20T12:37:14;101124.56;;;8.02;100.00
13732;BME280;6937;56.096;12.664;2023-02-20T12:39:52;101114.09;;;7.99;100.00
13732;BME280;6937;56.096;12.664;2023-02-20T12:42:33;101087.41;;;8.01;100.00
13732;BME280;6937;56.096;12.664;2023-02-20T12:45:22;101085.13;;;7.95;100.00
13732;BME280;6937;56.096;12.664;2023-02-20T12:53:28;101069.91;;;7.97;100.00
13732;BME280;6937;56.096;12.664;2023-02-20T13:01:30;101040.13;;;7.90;100.00
13732;BME280;6937;56.096;12.664;2023-02-20T13:04:29;100994.97;;;7.89;100.00
13732;BME280;6937;56.096;12.664;2023-02-20T13:07:13;100993.34;;;7.86;100.00
13732;BME280;6937;56.096;12.664;2023-02-20T13:09:45;100979.94;;;7.88;100.00
13732;BME280;6937;56.096;12.664;2023-02-20T13:12:18;100982.78;;;7.85;100.00
13732;BME280;6937;56.096;12.664;2023-02-20T13:17:45;100959.00;;;7.82;100.00
13732;BME280;6937;56.096;12.664;2023-02-20T13:20:26;100960.13;;;7.77;100.00
13732;BME280;6937;56.096;12.664;2023-02-20T13:25:53;100943.25;;;7.78;100.00
13732;BME280;6937;56.096;12.664;2023-02-20T13:30:44;100919.84;;;7.84;100.00
13732;BME280;6937;56.096;12.664;2023-02-20T13:33:21;100916.00;;;7.89;100.00
13732;BME280;6937;56.096;12.664;2023-02-20T13:35:53;100900.97;;;7.88;100.00
13732;BME280;6937;56.096;12.664;2023-02-20T13:38:21;100905.44;;;7.88;100.00
13732;BME280;6937;56.096;12.664;2023-02-20T13:41:07;100879.94;;;7.84;100.00
13732;BME280;6937;56.096;12.664;2023-02-20T13:43:37;100876.53;;;7.82;100.00
13732;BME280;6937;56.096;12.664;2023-02-20T13:56:17;100854.38;;;7.81;100.00
13732;BME280;6937;56.096;12.664;2023-02-20T13:58:46;100849.25;;;7.78;100.00
13732;BME280;6937;56.096;12.664;2023-02-20T14:01:13;100846.69;;;7.76;100.00
13732;BME280;6937;56.096;12.664;2023-02-20T14:03:39;100837.00;;;7.75;100.00
13732;BME280;6937;56.096;12.664;2023-02-20T14:06:17;100836.03;;;7.76;100.00
13732;BME280;6937;56.096;12.664;2023-02-20T14:08:44;100842.41;;;7.74;100.00
13732;BME280;6937;56.096;12.664;2023-02-20T14:11:31;100836.22;;;7.73;100.00
13732;BME280;6937;56.096;12.664;2023-02-20T14:13:58;100835.38;;;7.73;100.00
13732;BME280;6937;56.096;12.664;2023-02-20T14:16:29;100793.09;;;7.68;100.00
13732;BME280;6937;56.096;12.664;2023-02-20T14:18:56;100786.91;;;7.68;100.00
13732;BME280;6937;56.096;12.664;2023-02-20T14:21:23;100770.38;;;7.63;100.00
13732;BME280;6937;56.096;12.664;2023-02-20T14:23:50;100766.09;;;7.60;100.00
13732;BME280;6937;56.096;12.664;2023-02-20T14:26:21;100743.09;;;7.59;100.00
13732;BME280;6937;56.096;12.664;2023-02-20T14:28:50;100719.44;;;7.55;100.00
13732;BME280;6937;56.096;12.664;2023-02-20T14:31:22;100709.19;;;7.49;100.00
13732;BME280;6937;56.096;12.664;2023-02-20T14:33:50;100734.84;;;7.50;100.00